Time;durP1;ratioP1;P1;durP2;ratioP2;P2;SDS_P1;SDS_P2;PMS_P1;PMS_P2;Temp;Humidity;BMP_temperature;BMP_pressure;BME280_temperature;BME280_humidity;BME280_pressure;Samples;Min_cycle;Max_cycle;Signal;HPM_P1;HPM_P2
2022/05/23 00:00:08;;;;;;;5.70;2.15;;;13.60;99.90;;;;;;5030726;28;20511;-77
2022/05/23 00:02:34;;;;;;;6.13;2.33;;;13.60;99.90;;;;;;5030351;28;20071;-77
2022/05/23 00:05:00;;;;;;;4.78;2.25;;;13.60;99.90;;;;;;5029609;28;20429;-78
2022/05/23 00:07:32;;;;;;;6.47;2.03;;;13.60;99.90;;;;;;5033495;28;20034;-77
2022/05/23 00:09:59;;;;;;;6.72;2.25;;;13.60;99.90;;;;;;5028080;28;20057;-78
2022/05/23 00:12:28;;;;;;;7.20;2.30;;;13.60;99.90;;;;;;5029428;28;20054;-75
2022/05/23 00:14:56;;;;;;;5.88;2.17;;;13.60;99.90;;;;;;5029129;28;20045;-76
2022/05/23 00:17:23;;;;;;;6.10;2.03;;;13.50;99.90;;;;;;5034184;28;20101;-77
2022/05/23 00:19:50;;;;;;;5.15;2.00;;;13.50;99.90;;;;;;5029597;28;20103;-78
2022/05/23 00:22:16;;;;;;;5.60;2.17;;;13.50;99.90;;;;;;5051696;28;20074;-77
2022/05/23 00:24:44;;;;;;;6.22;2.13;;;13.50;99.90;;;;;;5024029;28;20054;-77
2022/05/23 00:27:13;;;;;;;5.53;2.38;;;13.50;99.90;;;;;;5030277;28;20056;-78
2022/05/23 00:29:40;;;;;;;7.15;2.40;;;13.40;99.90;;;;;;5031826;28;20045;-76
2022/05/23 00:37:35;;;;;;;6.80;2.38;;;13.30;99.90;;;;;;5026488;28;20041;-78
2022/05/23 00:40:01;;;;;;;4.50;2.10;;;13.20;99.90;;;;;;5032779;28;20049;-77
2022/05/23 00:45:18;;;;;;;9.45;2.42;;;13.20;99.90;;;;;;5026915;28;20103;-76
2022/05/23 00:47:46;;;;;;;9.05;2.92;;;13.10;99.90;;;;;;5032914;28;20053;-78
2022/05/23 00:50:16;;;;;;;4.60;2.20;;;13.10;99.90;;;;;;5032862;28;20045;-77
2022/05/23 00:53:04;;;;;;;8.43;2.47;;;13.10;99.90;;;;;;5031449;28;20057;-77
2022/05/23 00:55:37;;;;;;;4.38;2.30;;;13.00;99.90;;;;;;5028450;28;20073;-76
2022/05/23 00:58:12;;;;;;;6.38;2.33;;;12.90;99.90;;;;;;5012655;28;20053;-78
2022/05/23 01:00:38;;;;;;;5.30;2.63;;;12.90;99.90;;;;;;5032946;28;20397;-78
2022/05/23 01:03:10;;;;;;;9.18;3.30;;;12.90;99.90;;;;;;5032675;28;20045;-78
2022/05/23 01:05:37;;;;;;;5.75;2.72;;;12.90;99.90;;;;;;5028820;28;20140;-78
2022/05/23 01:08:03;;;;;;;8.48;3.00;;;12.80;99.90;;;;;;5034277;28;20053;-78
2022/05/23 01:10:35;;;;;;;8.15;3.20;;;12.80;99.90;;;;;;5034692;28;20050;-77
2022/05/23 01:13:01;;;;;;;7.03;3.10;;;12.80;99.90;;;;;;5035330;28;20146;-77
2022/05/23 01:15:29;;;;;;;7.25;3.03;;;12.80;99.90;;;;;;5029713;28;20038;-77
2022/05/23 01:17:54;;;;;;;6.97;3.33;;;12.70;99.90;;;;;;5033138;28;20858;-78
2022/05/23 01:20:22;;;;;;;6.43;3.10;;;12.70;99.90;;;;;;5020396;28;20048;-78
2022/05/23 01:23:21;;;;;;;6.50;2.95;;;12.70;99.90;;;;;;5033432;28;20080;-79
2022/05/23 01:25:49;;;;;;;8.07;3.42;;;12.70;99.90;;;;;;5029735;28;20556;-79
2022/05/23 01:28:16;;;;;;;5.05;3.38;;;12.60;99.90;;;;;;5031896;28;20179;-77
2022/05/23 01:30:42;;;;;;;8.02;3.40;;;12.60;99.90;;;;;;5046357;28;20393;-77
2022/05/23 01:33:13;;;;;;;7.30;3.55;;;12.50;99.90;;;;;;5028102;28;20056;-77
2022/05/23 01:35:40;;;;;;;5.97;3.10;;;12.50;99.90;;;;;;5029767;28;20540;-77
2022/05/23 01:38:06;;;;;;;7.05;3.35;;;12.50;99.90;;;;;;5031516;28;20136;-77
2022/05/23 01:40:32;;;;;;;8.68;3.30;;;12.50;99.90;;;;;;5025302;28;20053;-78
2022/05/23 01:42:58;;;;;;;7.45;3.88;;;12.40;99.90;;;;;;5029452;28;20041;-78
2022/05/23 01:45:36;;;;;;;7.65;3.33;;;12.40;99.90;;;;;;5023073;28;20056;-77
2022/05/23 01:48:04;;;;;;;9.27;3.78;;;12.40;99.90;;;;;;5030706;28;20092;-78
2022/05/23 01:50:31;;;;;;;6.70;3.50;;;12.30;99.90;;;;;;5030463;28;20427;-78
2022/05/23 01:52:58;;;;;;;6.88;3.28;;;12.30;99.90;;;;;;5028099;28;20518;-77
2022/05/23 01:55:25;;;;;;;6.90;3.45;;;12.30;99.90;;;;;;5054624;28;20049;-78
2022/05/23 01:57:54;;;;;;;9.00;4.20;;;12.30;99.90;;;;;;5031305;28;20489;-78
2022/05/23 02:03:04;;;;;;;8.38;4.07;;;12.30;99.90;;;;;;5031820;28;20049;-78
2022/05/23 02:05:33;;;;;;;7.13;4.07;;;12.30;99.90;;;;;;5045400;28;20049;-79
2022/05/23 02:07:59;;;;;;;8.65;4.22;;;12.30;99.90;;;;;;5027668;28;20037;-77
2022/05/23 02:10:25;;;;;;;9.77;4.18;;;12.40;99.90;;;;;;5029472;28;20054;-75
2022/05/23 02:12:51;;;;;;;6.93;4.25;;;12.40;99.90;;;;;;5054294;28;20104;-78
2022/05/23 02:15:19;;;;;;;6.20;4.50;;;12.40;99.90;;;;;;5027498;28;20046;-74
2022/05/23 02:17:46;;;;;;;7.90;4.53;;;12.40;99.90;;;;;;5029682;28;20076;-76
2022/05/23 02:20:13;;;;;;;8.43;4.32;;;12.50;99.90;;;;;;5028022;28;20080;-78
2022/05/23 02:22:39;;;;;;;9.93;5.22;;;12.50;99.90;;;;;;5024686;28;20045;-78
2022/05/23 02:25:07;;;;;;;7.13;4.88;;;12.50;99.90;;;;;;5025431;28;20065;-77
2022/05/23 02:27:34;;;;;;;7.78;4.43;;;12.50;99.90;;;;;;5046432;28;20048;-77
2022/05/23 02:30:00;;;;;;;6.00;4.15;;;12.50;99.90;;;;;;5022541;28;20038;-78
2022/05/23 02:32:27;;;;;;;9.50;4.80;;;12.50;99.90;;;;;;5028895;28;20053;-77
2022/05/23 02:34:53;;;;;;;7.53;4.03;;;12.50;99.90;;;;;;5031164;28;20172;-79
2022/05/23 02:37:19;;;;;;;8.07;4.47;;;12.50;99.90;;;;;;5027435;28;20143;-78
2022/05/23 02:39:45;;;;;;;7.70;4.10;;;12.60;99.90;;;;;;5029599;28;20056;-79
2022/05/23 02:42:11;;;;;;;7.20;4.38;;;12.60;99.90;;;;;;5028773;28;20037;-78
2022/05/23 02:44:37;;;;;;;8.43;5.00;;;12.60;99.90;;;;;;5025972;28;20041;-78
2022/05/23 02:47:03;;;;;;;7.47;4.25;;;12.60;99.90;;;;;;5029641;28;20052;-80
2022/05/23 02:49:29;;;;;;;8.35;4.78;;;12.60;99.90;;;;;;5024011;28;20058;-77
2022/05/23 02:51:56;;;;;;;11.23;5.07;;;12.60;99.90;;;;;;5028333;28;20041;-78
2022/05/23 02:54:25;;;;;;;11.10;5.20;;;12.70;99.90;;;;;;5029306;28;20046;-78
2022/05/23 02:56:52;;;;;;;9.15;5.50;;;12.60;99.90;;;;;;5029147;28;20049;-77
2022/05/23 02:59:18;;;;;;;7.80;4.35;;;12.60;99.90;;;;;;5032986;28;20095;-78
2022/05/23 03:04:30;;;;;;;7.57;5.20;;;12.60;99.90;;;;;;5032599;28;20120;-75
2022/05/23 03:06:58;;;;;;;8.68;5.13;;;12.70;99.90;;;;;;5032484;28;20103;-78
2022/05/23 03:09:27;;;;;;;7.43;5.60;;;12.60;99.90;;;;;;5027982;28;20041;-78
2022/05/23 03:11:54;;;;;;;8.27;4.63;;;12.60;99.90;;;;;;5026160;28;20493;-75
2022/05/23 03:14:20;;;;;;;6.40;5.13;;;12.60;99.90;;;;;;5029089;28;20424;-77
2022/05/23 03:16:48;;;;;;;11.63;5.10;;;12.60;99.90;;;;;;5027303;28;20049;-78
2022/05/23 03:19:14;;;;;;;8.45;5.30;;;12.60;99.90;;;;;;5029543;28;20078;-76
2022/05/23 03:27:08;;;;;;;9.68;5.63;;;12.50;99.90;;;;;;5036063;28;20081;-76
2022/05/23 03:29:34;;;;;;;7.82;5.68;;;12.60;99.90;;;;;;5030606;28;20107;-78
2022/05/23 03:32:01;;;;;;;7.35;5.82;;;12.50;99.90;;;;;;5026834;28;20445;-75
2022/05/23 03:34:27;;;;;;;9.70;5.53;;;12.60;99.90;;;;;;4997451;28;20049;-76
2022/05/23 03:36:53;;;;;;;6.82;4.97;;;12.50;99.90;;;;;;5014799;28;20524;-77
2022/05/23 03:39:18;;;;;;;10.32;5.38;;;12.50;99.90;;;;;;5007482;28;20472;-76
2022/05/23 03:41:44;;;;;;;7.85;5.22;;;12.50;99.90;;;;;;5014815;28;20049;-77
2022/05/23 03:44:10;;;;;;;8.85;5.97;;;12.50;99.90;;;;;;5008186;28;20046;-75
2022/05/23 03:46:36;;;;;;;7.60;5.43;;;12.50;99.90;;;;;;5022534;28;20505;-77
2022/05/23 03:49:07;;;;;;;7.57;5.82;;;12.50;99.90;;;;;;5010093;28;20092;-78
2022/05/23 03:51:33;;;;;;;8.48;5.88;;;12.50;99.90;;;;;;4994709;28;20181;-77
2022/05/23 03:53:59;;;;;;;9.07;6.30;;;12.50;99.90;;;;;;4992874;28;20128;-78
2022/05/23 03:56:25;;;;;;;8.18;5.93;;;12.50;99.90;;;;;;5013086;28;20053;-78
2022/05/23 03:58:53;;;;;;;9.00;5.97;;;12.50;99.90;;;;;;5009754;28;20057;-79
2022/05/23 04:01:25;;;;;;;11.15;5.95;;;12.50;99.90;;;;;;5013096;28;20046;-78
2022/05/23 04:03:50;;;;;;;8.57;5.63;;;12.50;99.90;;;;;;5007899;28;20097;-78
2022/05/23 04:06:16;;;;;;;11.82;5.35;;;12.50;99.90;;;;;;5017796;28;20444;-78
2022/05/23 04:08:42;;;;;;;8.02;5.95;;;12.50;99.90;;;;;;4996494;28;20046;-78
2022/05/23 04:11:08;;;;;;;9.57;6.00;;;12.50;99.90;;;;;;4995735;28;20066;-78
2022/05/23 04:13:34;;;;;;;8.80;6.00;;;12.50;99.90;;;;;;4993180;28;20553;-78
2022/05/23 04:16:00;;;;;;;9.88;6.18;;;12.60;99.90;;;;;;5013386;28;20124;-77
2022/05/23 04:18:26;;;;;;;10.77;5.57;;;12.50;99.90;;;;;;4999969;28;20081;-78
2022/05/23 04:20:52;;;;;;;8.95;5.53;;;12.50;99.90;;;;;;5018625;28;20101;-78
2022/05/23 04:23:18;;;;;;;9.68;5.88;;;12.50;99.90;;;;;;4995186;28;20085;-76
2022/05/23 04:25:46;;;;;;;7.25;5.45;;;12.50;99.90;;;;;;4995542;28;20056;-77
2022/05/23 04:28:13;;;;;;;11.57;6.50;;;12.20;99.90;;;;;;5013098;28;20053;-78
2022/05/23 04:30:39;;;;;;;8.63;6.13;;;12.50;99.90;;;;;;5006068;28;20102;-78
2022/05/23 04:35:56;;;;;;;12.30;6.40;;;12.50;99.90;;;;;;5038017;28;20037;-77
2022/05/23 04:38:23;;;;;;;10.00;6.05;;;12.50;99.90;;;;;;5035844;28;20060;-78
2022/05/23 04:40:49;;;;;;;10.57;5.93;;;12.50;99.90;;;;;;5037708;28;20171;-78
2022/05/23 04:43:15;;;;;;;8.93;5.85;;;12.60;99.90;;;;;;5039633;28;20428;-78
2022/05/23 04:45:41;;;;;;;7.43;5.85;;;12.60;99.90;;;;;;5033234;28;20057;-77
2022/05/23 04:50:52;;;;;;;8.45;6.63;;;12.60;99.90;;;;;;5039472;28;20046;-76
2022/05/23 04:53:18;;;;;;;8.50;6.05;;;12.50;99.90;;;;;;5037272;28;20394;-79
2022/05/23 04:55:44;;;;;;;8.98;6.82;;;12.50;99.90;;;;;;5034721;28;20498;-78
2022/05/23 04:58:11;;;;;;;12.15;6.25;;;12.50;99.90;;;;;;5035573;28;20057;-77
2022/05/23 05:00:42;;;;;;;8.05;6.03;;;12.50;99.90;;;;;;5037111;28;20056;-76
2022/05/23 05:03:11;;;;;;;9.13;6.80;;;12.50;99.90;;;;;;5034950;28;20206;-78
2022/05/23 05:05:36;;;;;;;8.38;6.65;;;12.60;99.90;;;;;;5030270;28;20450;-79
2022/05/23 05:08:04;;;;;;;12.20;6.35;;;12.60;99.90;;;;;;5033484;28;20115;-78
2022/05/23 05:10:30;;;;;;;11.45;7.05;;;12.60;99.90;;;;;;5034923;28;20053;-77
2022/05/23 05:12:57;;;;;;;10.68;6.35;;;12.70;99.90;;;;;;5028522;28;20049;-78
2022/05/23 05:15:26;;;;;;;9.50;6.45;;;12.70;99.90;;;;;;5050207;28;20504;-77
2022/05/23 05:17:53;;;;;;;9.60;6.28;;;12.80;99.90;;;;;;5032510;28;20068;-77
2022/05/23 05:20:21;;;;;;;10.20;6.72;;;12.90;99.90;;;;;;5031071;28;20056;-78
2022/05/23 05:22:47;;;;;;;10.00;6.45;;;12.90;99.90;;;;;;5032957;28;20038;-79
2022/05/23 05:25:17;;;;;;;9.95;6.15;;;13.00;99.90;;;;;;5022737;28;20062;-78
2022/05/23 05:27:43;;;;;;;13.00;6.38;;;13.00;99.90;;;;;;5026613;28;20037;-79
2022/05/23 05:30:16;;;;;;;9.30;6.05;;;13.10;99.90;;;;;;5021059;28;20038;-78
2022/05/23 05:32:53;;;;;;;9.07;6.25;;;13.20;99.90;;;;;;5037575;28;20129;-79
2022/05/23 05:35:25;;;;;;;9.25;6.75;;;13.20;99.90;;;;;;5021640;28;20060;-79
2022/05/23 05:38:04;;;;;;;11.60;6.50;;;13.20;99.90;;;;;;5019949;28;20068;-79
2022/05/23 05:40:32;;;;;;;8.88;6.50;;;13.20;99.90;;;;;;5028592;28;20076;-79
2022/05/23 05:43:04;;;;;;;8.85;6.25;;;13.30;99.90;;;;;;5024343;28;20049;-78
2022/05/23 05:45:37;;;;;;;11.35;6.63;;;13.40;99.90;;;;;;5022572;28;20049;-80
2022/05/23 05:48:03;;;;;;;11.75;6.20;;;13.40;99.90;;;;;;5020319;28;20107;-78
2022/05/23 05:50:32;;;;;;;7.78;5.78;;;13.40;99.90;;;;;;5023690;28;20064;-79
2022/05/23 05:53:01;;;;;;;10.80;6.28;;;13.50;99.90;;;;;;5023247;28;20106;-78
2022/05/23 05:55:27;;;;;;;7.47;6.40;;;13.50;99.90;;;;;;5026629;28;20386;-79
2022/05/23 05:57:53;;;;;;;13.35;6.97;;;13.50;99.90;;;;;;5052167;28;20285;-79
2022/05/23 06:00:19;;;;;;;9.00;6.35;;;13.60;99.90;;;;;;5026657;28;20049;-79
2022/05/23 06:02:45;;;;;;;9.50;6.18;;;13.60;99.90;;;;;;5022146;28;20064;-80
2022/05/23 06:05:11;;;;;;;11.05;6.35;;;13.70;99.90;;;;;;5022765;28;20045;-80
2022/05/23 06:13:05;;;;;;;8.80;6.32;;;13.80;99.90;;;;;;5018830;28;20049;-76
2022/05/23 06:15:32;;;;;;;8.55;6.13;;;13.90;99.90;;;;;;5027933;28;20668;-76
2022/05/23 06:17:57;;;;;;;9.05;6.35;;;13.90;99.90;;;;;;5028392;28;20052;-76
2022/05/23 06:20:23;;;;;;;10.23;6.95;;;14.00;99.90;;;;;;5022877;28;20049;-74
2022/05/23 06:22:50;;;;;;;11.13;5.97;;;14.10;99.90;;;;;;5027040;28;20481;-76
2022/05/23 06:25:16;;;;;;;16.10;6.55;;;14.10;99.90;;;;;;5026117;28;20056;-78
2022/05/23 06:27:43;;;;;;;10.02;6.30;;;14.20;99.90;;;;;;5024522;28;20052;-78
2022/05/23 06:30:15;;;;;;;12.82;6.38;;;14.30;99.90;;;;;;5025979;28;20065;-76
2022/05/23 06:32:41;;;;;;;12.48;6.47;;;14.40;99.90;;;;;;5056110;28;20089;-78
2022/05/23 06:35:07;;;;;;;9.27;6.10;;;14.50;99.90;;;;;;5026021;28;20088;-75
2022/05/23 06:37:39;;;;;;;11.20;6.10;;;14.60;99.90;;;;;;5028419;28;20061;-75
2022/05/23 06:40:07;;;;;;;11.27;6.50;;;14.80;99.90;;;;;;5020340;28;20045;-75
2022/05/23 06:42:32;;;;;;;12.23;6.43;;;14.90;99.90;;;;;;5019091;28;20117;-75
2022/05/23 06:44:59;;;;;;;10.50;5.80;;;15.10;99.90;;;;;;5029897;28;20077;-75
2022/05/23 06:47:25;;;;;;;9.50;5.93;;;15.20;99.90;;;;;;5019647;28;20038;-75
2022/05/23 06:49:51;;;;;;;9.63;5.47;;;15.30;99.90;;;;;;5026247;28;20045;-75
2022/05/23 06:52:17;;;;;;;10.05;6.63;;;15.40;99.90;;;;;;5027919;28;20087;-75
2022/05/23 06:54:42;;;;;;;9.82;5.47;;;15.50;99.90;;;;;;5031923;28;20073;-75
2022/05/23 06:57:08;;;;;;;11.00;6.00;;;15.60;99.90;;;;;;5023589;28;20056;-75
2022/05/23 06:59:34;;;;;;;11.30;6.07;;;15.70;99.90;;;;;;5034367;28;20049;-75
2022/05/23 07:02:01;;;;;;;11.20;5.88;;;15.90;99.90;;;;;;5029101;28;20051;-75
2022/05/23 07:12:19;;;;;;;12.75;6.25;;;16.00;99.90;;;;;;5020720;28;20068;-74
2022/05/23 07:12:41;;;;;;;7.17;4.80;;;16.30;99.90;;;;;;5027424;28;20128;-75
2022/05/23 07:15:08;;;;;;;9.25;5.60;;;16.50;99.90;;;;;;5027864;28;20128;-76
2022/05/23 07:17:34;;;;;;;8.82;5.40;;;16.60;99.90;;;;;;5022648;28;20052;-75
2022/05/23 07:19:59;;;;;;;10.70;5.55;;;16.70;99.90;;;;;;5027814;28;20046;-76
2022/05/23 07:22:25;;;;;;;10.35;5.25;;;16.80;99.90;;;;;;5026380;28;20500;-76
2022/05/23 07:24:51;;;;;;;7.22;5.47;;;16.90;99.90;;;;;;5021984;28;20049;-76
2022/05/23 07:27:17;;;;;;;8.75;5.60;;;17.00;99.90;;;;;;5030286;28;20480;-76
2022/05/23 07:29:42;;;;;;;10.30;5.65;;;17.10;99.90;;;;;;5031879;28;20049;-75
2022/05/23 07:32:11;;;;;;;10.68;5.20;;;17.30;99.90;;;;;;5028568;28;20041;-76
2022/05/23 07:34:38;;;;;;;12.05;5.97;;;17.40;99.90;;;;;;5030982;28;20050;-76
2022/05/23 07:37:03;;;;;;;13.35;6.07;;;17.70;99.90;;;;;;5027739;28;20048;-76
2022/05/23 07:39:29;;;;;;;7.95;5.20;;;17.90;99.90;;;;;;5025591;28;21265;-76
2022/05/23 07:41:55;;;;;;;7.47;5.20;;;18.10;99.90;;;;;;5029394;28;20071;-76
2022/05/23 07:44:20;;;;;;;11.85;5.93;;;18.30;99.90;;;;;;5023550;28;20120;-76
2022/05/23 07:46:46;;;;;;;12.00;5.90;;;18.50;99.90;;;;;;5022547;28;20125;-75
2022/05/23 07:49:12;;;;;;;8.27;5.32;;;18.70;99.90;;;;;;5024680;28;20447;-76
2022/05/23 07:51:38;;;;;;;12.48;6.55;;;18.80;99.90;;;;;;5025564;28;20593;-76
2022/05/23 08:02:17;;;;;;;11.05;5.10;;;19.50;99.90;;;;;;5025822;28;20077;-76
2022/05/23 08:04:43;;;;;;;10.50;5.10;;;19.80;99.90;;;;;;5028839;28;20459;-76
2022/05/23 08:07:09;;;;;;;8.25;4.85;;;20.00;99.90;;;;;;5026323;28;20132;-74
2022/05/23 08:09:36;;;;;;;10.27;5.13;;;20.20;99.90;;;;;;5026196;28;20596;-75
2022/05/23 08:12:03;;;;;;;11.85;5.80;;;20.40;99.90;;;;;;5023454;28;20050;-76
2022/05/23 08:14:29;;;;;;;11.38;5.63;;;20.50;99.90;;;;;;5028872;28;20042;-76
2022/05/23 08:16:54;;;;;;;10.52;4.88;;;20.60;99.90;;;;;;5026701;28;20519;-76
2022/05/23 08:19:20;;;;;;;8.77;5.03;;;20.70;99.90;;;;;;5022554;28;20053;-76
2022/05/23 08:21:51;;;;;;;9.90;5.53;;;20.70;99.90;;;;;;5024842;28;20053;-77
2022/05/23 08:24:17;;;;;;;10.00;5.25;;;20.80;99.90;;;;;;5019370;28;20057;-76
2022/05/23 08:26:43;;;;;;;9.60;4.88;;;20.90;99.90;;;;;;5025771;28;20041;-75
2022/05/23 08:29:09;;;;;;;10.40;5.30;;;21.00;99.90;;;;;;5023705;28;20129;-75
2022/05/23 08:31:36;;;;;;;12.63;4.88;;;21.00;99.90;;;;;;5027383;28;20050;-76
2022/05/23 08:34:01;;;;;;;6.93;4.43;;;21.10;99.90;;;;;;5024852;28;20648;-75
2022/05/23 08:36:27;;;;;;;10.60;5.15;;;21.20;99.90;;;;;;5026650;28;20073;-75
2022/05/23 08:38:53;;;;;;;7.90;4.88;;;21.40;99.90;;;;;;5019670;28;20084;-75
2022/05/23 08:41:25;;;;;;;9.45;4.90;;;21.40;99.90;;;;;;5020585;28;20052;-75
2022/05/23 08:44:07;;;;;;;10.95;5.38;;;21.50;99.90;;;;;;5022081;28;20517;-75
2022/05/23 08:46:41;;;;;;;7.93;4.78;;;21.60;99.90;;;;;;5018499;28;20484;-75
2022/05/23 08:49:15;;;;;;;;;;;21.70;99.90;;;;;;5022883;28;20045;-75
2022/05/23 08:52:08;;;;;;;9.27;5.18;;;21.80;99.90;;;;;;5020567;28;20403;-75
2022/05/23 08:54:54;;;;;;;8.07;4.72;;;22.00;99.90;;;;;;5025518;28;20409;-77
2022/05/23 08:57:50;;;;;;;11.40;4.57;;;22.10;99.90;;;;;;5020346;28;20049;-76
2022/05/23 09:00:20;;;;;;;6.40;4.20;;;22.30;99.90;;;;;;5018819;28;20057;-76
2022/05/23 09:02:48;;;;;;;7.78;4.15;;;22.40;99.90;;;;;;5022601;28;20122;-76
2022/05/23 09:05:35;;;;;;;10.52;3.72;;;22.50;99.90;;;;;;5025048;28;20049;-76
2022/05/23 09:08:05;;;;;;;7.88;3.45;;;22.60;99.90;;;;;;5024715;28;20042;-76
2022/05/23 09:10:38;;;;;;;7.13;4.00;;;22.70;99.90;;;;;;5024949;28;20128;-74
2022/05/23 09:13:05;;;;;;;7.95;4.15;;;22.70;99.90;;;;;;5024014;28;20797;-75
2022/05/23 09:15:32;;;;;;;9.68;3.88;;;22.70;99.90;;;;;;5026554;28;20045;-75
2022/05/23 09:18:03;;;;;;;6.45;3.42;;;22.70;99.90;;;;;;5025477;28;20447;-75
2022/05/23 09:20:38;;;;;;;7.47;3.35;;;22.80;99.90;;;;;;5056906;28;20251;-74
2022/05/23 09:23:09;;;;;;;8.25;3.53;;;22.80;99.90;;;;;;5019977;28;20324;-75
2022/05/23 09:25:35;;;;;;;7.13;3.80;;;22.80;99.90;;;;;;5021714;28;20038;-74
2022/05/23 09:28:12;;;;;;;9.13;4.10;;;22.90;99.90;;;;;;5022606;28;20512;-75
2022/05/23 09:30:39;;;;;;;8.70;4.30;;;22.90;99.90;;;;;;5022885;28;20571;-75
2022/05/23 09:33:11;;;;;;;8.15;4.22;;;23.00;99.90;;;;;;5027960;28;20129;-74
2022/05/23 09:35:43;;;;;;;10.68;4.47;;;23.00;99.90;;;;;;5022308;28;20045;-75
2022/05/23 09:38:29;;;;;;;6.43;3.42;;;23.10;99.90;;;;;;5023243;28;20037;-76
2022/05/23 09:40:55;;;;;;;6.97;3.22;;;23.20;99.90;;;;;;5024332;28;20413;-76
2022/05/23 09:49:18;;;;;;;6.05;3.13;;;23.40;99.00;;;;;;5021668;28;20042;-75
2022/05/23 09:51:56;;;;;;;6.65;3.15;;;23.40;99.20;;;;;;5023777;28;20076;-75
2022/05/23 09:54:35;;;;;;;8.00;3.20;;;23.40;99.30;;;;;;5020566;28;20054;-75
2022/05/23 09:57:06;;;;;;;5.82;3.20;;;23.50;99.50;;;;;;5023605;28;20046;-75
2022/05/23 09:59:34;;;;;;;7.45;2.95;;;23.60;99.10;;;;;;5025217;28;20055;-75
2022/05/23 10:02:29;;;;;;;6.88;2.85;;;23.80;99.10;;;;;;5027671;28;20059;-75
2022/05/23 10:04:55;;;;;;;5.43;2.88;;;24.00;98.80;;;;;;5025558;28;20095;-76
2022/05/23 10:07:36;;;;;;;6.88;2.58;;;24.10;99.00;;;;;;5027798;28;20045;-75
2022/05/23 10:10:19;;;;;;;4.20;2.35;;;24.20;98.30;;;;;;5020857;28;20051;-76
2022/05/23 10:12:47;;;;;;;6.10;2.35;;;24.30;97.60;;;;;;5021914;28;20053;-75
2022/05/23 10:15:20;;;;;;;6.22;2.55;;;24.20;97.50;;;;;;5057575;28;20409;-76
2022/05/23 10:18:00;;;;;;;5.30;2.20;;;24.30;96.40;;;;;;5024935;28;20064;-79
2022/05/23 10:20:42;;;;;;;7.07;2.42;;;24.30;95.90;;;;;;5022062;28;20045;-76
2022/05/23 10:23:23;;;;;;;6.35;2.25;;;24.20;96.40;;;;;;5015948;28;20047;-77
2022/05/23 10:26:08;;;;;;;5.57;1.90;;;24.20;96.80;;;;;;5019870;28;20095;-77
2022/05/23 10:29:01;;;;;;;6.18;1.85;;;24.20;96.30;;;;;;5018185;28;20472;-76
2022/05/23 10:32:02;;;;;;;4.28;1.98;;;24.30;96.50;;;;;;5015475;28;20053;-77
2022/05/23 10:34:41;;;;;;;5.68;2.05;;;24.30;95.10;;;;;;4998393;28;20057;-76
2022/05/23 10:37:21;;;;;;;4.85;2.17;;;24.40;95.40;;;;;;5018746;28;20046;-77
2022/05/23 10:42:46;;;;;;;;;;;24.60;95.60;;;;;;5023116;28;20405;-77
2022/05/23 10:45:22;;;;;;;6.78;1.65;;;24.70;92.90;;;;;;5022470;28;19925;-77
2022/05/23 10:48:33;;;;;;;5.60;1.80;;;24.80;94.10;;;;;;5023064;28;20083;-77
2022/05/23 10:51:29;;;;;;;5.85;1.92;;;25.00;94.00;;;;;;5003592;28;20061;-78
2022/05/23 10:54:06;;;;;;;6.68;2.17;;;25.10;93.10;;;;;;5017546;28;20485;-78
2022/05/23 10:56:57;;;;;;;5.78;2.25;;;25.10;93.10;;;;;;5022652;28;20049;-78
2022/05/23 10:59:57;;;;;;;8.50;2.50;;;25.10;91.90;;;;;;5022668;28;20099;-78
2022/05/23 11:02:48;;;;;;;5.18;1.92;;;25.10;92.90;;;;;;5018837;28;20049;-78
2022/05/23 11:05:37;;;;;;;6.45;2.20;;;25.20;92.60;;;;;;5023763;28;20599;-78
2022/05/23 11:08:30;;;;;;;6.30;2.08;;;25.20;92.70;;;;;;5021549;28;20060;-79
2022/05/23 11:11:13;;;;;;;4.90;2.30;;;25.10;93.00;;;;;;5021219;28;20044;-78
2022/05/23 11:14:08;;;;;;;7.30;2.08;;;25.20;93.20;;;;;;5025138;28;20053;-77
2022/05/23 11:17:09;;;;;;;5.60;2.40;;;25.30;92.70;;;;;;5023009;28;20095;-78
2022/05/23 11:19:50;;;;;;;5.70;2.30;;;25.40;93.10;;;;;;5019019;28;20117;-77
2022/05/23 11:22:20;;;;;;;5.78;2.10;;;25.50;92.70;;;;;;5022692;28;20041;-77
2022/05/23 11:24:54;;;;;;;6.55;1.90;;;25.60;92.70;;;;;;5017268;28;20037;-77
2022/05/23 11:36:09;;;;;;;5.70;2.30;;;25.90;92.50;;;;;;4999880;28;20129;-79
2022/05/23 11:38:41;;;;;;;4.03;1.75;;;25.90;91.50;;;;;;4977896;28;20045;-77
2022/05/23 11:41:10;;;;;;;6.03;1.75;;;25.70;91.50;;;;;;5004574;28;20086;-78
2022/05/23 11:43:36;;;;;;;5.15;1.67;;;25.70;91.30;;;;;;4987876;28;20485;-77
2022/05/23 11:46:09;;;;;;;5.30;1.88;;;25.60;91.10;;;;;;4988769;28;20715;-77
2022/05/23 11:48:39;;;;;;;4.90;1.67;;;25.60;91.30;;;;;;4989133;28;20085;-77
2022/05/23 11:51:12;;;;;;;5.85;1.70;;;25.70;91.30;;;;;;5006259;28;20050;-77
2022/05/23 11:53:59;;;;;;;4.60;1.63;;;25.90;91.10;;;;;;4989895;28;20050;-77
2022/05/23 11:56:58;;;;;;;3.92;1.38;;;26.10;91.30;;;;;;4993875;28;20371;-77
2022/05/23 11:59:23;;;;;;;3.47;1.63;;;26.20;90.10;;;;;;5006500;28;20038;-77
2022/05/23 12:02:07;;;;;;;5.55;1.45;;;26.40;90.70;;;;;;4989398;28;20053;-77
2022/05/23 12:04:56;;;;;;;4.57;1.77;;;26.50;89.40;;;;;;5004816;28;20076;-77
2022/05/23 12:07:31;;;;;;;13.20;1.80;;;26.70;88.00;;;;;;5004572;28;20549;-78
2022/05/23 12:10:25;;;;;;;6.05;1.50;;;26.80;88.70;;;;;;4997184;28;20049;-77
2022/05/23 12:13:35;;;;;;;5.17;1.80;;;26.70;87.70;;;;;;5006469;28;20093;-77
2022/05/23 12:16:31;;;;;;;6.13;1.55;;;26.70;87.80;;;;;;4976289;28;20133;-77
2022/05/23 12:19:13;;;;;;;6.38;1.85;;;26.70;87.10;;;;;;5006632;28;20115;-80
2022/05/23 12:21:43;;;;;;;3.90;1.50;;;26.70;88.20;;;;;;5006947;28;20409;-78
2022/05/23 12:24:23;;;;;;;12.20;6.18;;;26.80;90.00;;;;;;4982633;28;20089;-78
2022/05/23 12:26:53;;;;;;;5.03;2.40;;;26.80;88.60;;;;;;4990743;28;20061;-79
2022/05/23 12:29:31;;;;;;;6.18;2.40;;;26.80;89.50;;;;;;5008204;28;20041;-79
2022/05/23 12:32:20;;;;;;;7.00;1.90;;;27.00;87.00;;;;;;5009920;28;20092;-79
2022/05/23 12:34:48;;;;;;;7.78;1.83;;;27.00;88.50;;;;;;5009111;28;20054;-78
2022/05/23 12:37:22;;;;;;;4.53;1.83;;;27.10;88.60;;;;;;5017304;28;20493;-78
2022/05/23 12:40:21;;;;;;;4.78;1.98;;;27.10;88.20;;;;;;5002208;28;20073;-78
2022/05/23 12:43:03;;;;;;;5.72;2.10;;;27.20;88.20;;;;;;5006148;28;20104;-78
2022/05/23 12:46:06;;;;;;;8.75;2.65;;;27.10;88.00;;;;;;5006348;28;20440;-78
2022/05/23 12:48:52;;;;;;;6.07;1.98;;;27.00;86.90;;;;;;4990416;28;20054;-78
2022/05/23 12:51:37;;;;;;;8.15;1.95;;;26.70;86.10;;;;;;4986991;28;20057;-78
2022/05/23 12:54:21;;;;;;;;;;;26.40;88.10;;;;;;4990229;28;20635;-78
2022/05/23 12:57:13;;;;;;;3.73;2.00;;;26.30;87.50;;;;;;5004542;28;19925;-79
2022/05/23 12:59:50;;;;;;;4.80;1.90;;;26.10;88.50;;;;;;5006561;28;20103;-79
2022/05/23 13:02:24;;;;;;;7.70;2.10;;;26.10;89.90;;;;;;4983114;28;20049;-79
2022/05/23 13:04:56;;;;;;;6.85;2.47;;;26.00;90.60;;;;;;5007176;28;20050;-79
2022/05/23 13:07:24;;;;;;;6.72;2.17;;;26.10;90.30;;;;;;5006471;28;20104;-79
2022/05/23 13:09:54;;;;;;;7.80;1.73;;;26.10;89.90;;;;;;4988396;28;20061;-78
2022/05/23 13:12:49;;;;;;;8.82;1.98;;;26.10;90.00;;;;;;5007511;28;20046;-75
2022/05/23 13:15:28;;;;;;;6.32;2.20;;;26.20;88.70;;;;;;4987211;28;20442;-77
2022/05/23 13:22:05;;;;;;;6.28;1.85;;;26.30;90.00;;;;;;5006349;28;20046;-75
2022/05/23 13:23:25;;;;;;;6.28;1.60;;;26.50;89.20;;;;;;4988474;28;20417;-75
2022/05/23 13:25:51;;;;;;;4.65;2.00;;;26.40;89.00;;;;;;4991272;28;20053;-75
2022/05/23 13:28:19;;;;;;;5.53;1.80;;;26.40;89.10;;;;;;4984550;28;20042;-75
2022/05/23 13:30:51;;;;;;;5.55;2.10;;;26.30;89.50;;;;;;4986962;28;20050;-75
2022/05/23 13:33:24;;;;;;;7.03;2.08;;;26.10;87.60;;;;;;5011795;28;20272;-74
2022/05/23 13:35:59;;;;;;;6.68;2.30;;;26.00;89.10;;;;;;5024273;28;20577;-74
2022/05/23 13:38:28;;;;;;;7.25;2.08;;;25.80;90.10;;;;;;5056510;28;20512;-74
2022/05/23 13:40:56;;;;;;;5.00;2.20;;;25.70;90.60;;;;;;5028559;28;20053;-74
2022/05/23 13:43:27;;;;;;;7.50;2.33;;;25.60;91.30;;;;;;5025224;28;20477;-74
2022/05/23 13:46:08;;;;;;;7.22;2.67;;;25.50;91.60;;;;;;5027666;28;20061;-74
2022/05/23 13:48:46;;;;;;;5.50;2.28;;;25.40;91.90;;;;;;5023220;28;20060;-74
2022/05/23 13:51:19;;;;;;;6.95;2.13;;;25.30;92.30;;;;;;5025304;28;20052;-74
2022/05/23 13:53:52;;;;;;;5.03;2.05;;;25.20;92.30;;;;;;5017676;28;20045;-74
2022/05/23 13:56:18;;;;;;;6.63;1.92;;;25.10;92.70;;;;;;5024517;28;20073;-74
2022/05/23 13:58:53;;;;;;;8.10;2.83;;;25.10;93.50;;;;;;5057179;28;20050;-74
2022/05/23 14:01:27;;;;;;;4.80;2.50;;;25.10;93.40;;;;;;5022878;28;20547;-73
2022/05/23 14:04:02;;;;;;;6.25;1.92;;;25.00;93.70;;;;;;5026224;28;20497;-74
2022/05/23 14:06:33;;;;;;;6.40;2.40;;;25.00;93.60;;;;;;5026041;28;20099;-73
2022/05/23 14:09:02;;;;;;;4.60;2.28;;;24.90;93.20;;;;;;5021197;28;20053;-74
2022/05/23 14:11:49;;;;;;;7.18;2.33;;;25.00;93.20;;;;;;5037307;28;20122;-73